createdAt,value
2016-11-09T00:00:15.665Z,0
2016-11-09T00:03:27.415Z,0
2016-11-09T00:04:56.039Z,0
2016-11-09T00:06:24.916Z,0
2016-11-09T00:07:39.475Z,0
2016-11-09T00:09:07.805Z,0
2016-11-09T00:12:20.781Z,0
2016-11-09T00:13:35.630Z,0
2016-11-09T00:16:03.414Z,0
2016-11-09T00:17:47.487Z,0
2016-11-09T00:19:01.315Z,0
2016-11-09T00:20:30.299Z,0
2016-11-09T00:21:44.430Z,0
2016-11-09T00:23:42.779Z,0
2016-11-09T00:25:40.947Z,0
2016-11-09T00:29:37.832Z,0
2016-11-09T00:31:06.933Z,0
2016-11-09T00:33:05.485Z,0
2016-11-09T00:36:47.788Z,0
2016-11-09T00:38:01.634Z,0
2016-11-09T00:41:58.415Z,0
2016-11-09T00:45:55.610Z,0
2016-11-09T00:50:07.435Z,0
2016-11-09T00:54:19.808Z,0
2016-11-09T00:56:03.213Z,0
2016-11-09T00:59:30.903Z,0
2016-11-09T01:00:59.525Z,0
2016-11-09T01:02:13.344Z,0
2016-11-09T01:05:55.778Z,0
2016-11-09T01:07:24.688Z,0
2016-11-09T01:10:36.740Z,0
2016-11-09T01:15:20.253Z,0
2016-11-09T01:16:48.836Z,0
2016-11-09T01:18:17.484Z,0
2016-11-09T01:20:01.819Z,0
2016-11-09T01:23:28.757Z,0
2016-11-09T01:25:12.200Z,0
2016-11-09T01:26:56.153Z,0
2016-11-09T01:28:39.717Z,0
2016-11-09T01:32:22.313Z,0
2016-11-09T01:34:05.683Z,0
2016-11-09T01:35:49.151Z,0
2016-11-09T01:39:16.467Z,0
2016-11-09T01:40:45.070Z,0
2016-11-09T01:41:58.895Z,0
2016-11-09T01:43:57.039Z,0
2016-11-09T01:50:36.718Z,0
2016-11-09T01:53:49.319Z,0
2016-11-09T02:00:13.378Z,0
2016-11-09T02:01:57.614Z,0
2016-11-09T02:06:24.243Z,0
2016-11-09T02:08:22.406Z,0
2016-11-09T02:10:05.778Z,0
2016-11-09T02:11:19.583Z,0
2016-11-09T02:13:03.262Z,0
2016-11-09T02:14:17.213Z,0
2016-11-09T02:15:30.944Z,0
2016-11-09T02:16:44.633Z,0
2016-11-09T02:17:58.458Z,0
2016-11-09T02:19:12.519Z,0
2016-11-09T02:20:26.921Z,0
2016-11-09T02:22:10.246Z,0
2016-11-09T02:23:23.957Z,0
2016-11-09T02:24:37.767Z,0
2016-11-09T02:26:50.611Z,0
2016-11-09T02:28:34.282Z,0
2016-11-09T02:35:43.346Z,0
2016-11-09T02:37:27.248Z,0
2016-11-09T02:39:10.831Z,0
2016-11-09T02:40:24.967Z,0
2016-11-09T02:44:06.683Z,0
2016-11-09T02:45:50.605Z,0
2016-11-09T02:47:04.636Z,0
2016-11-09T02:52:59.471Z,0
2016-11-09T02:54:42.784Z,0
2016-11-09T02:55:56.714Z,0
2016-11-09T02:59:24.080Z,0
2016-11-09T03:01:07.699Z,0
2016-11-09T03:03:08.298Z,0
2016-11-09T03:04:22.321Z,0
2016-11-09T03:05:36.805Z,0
2016-11-09T03:07:35.051Z,0
2016-11-09T03:08:49.166Z,0
2016-11-09T03:10:18.139Z,0
2016-11-09T03:11:47.512Z,0
2016-11-09T03:13:16.333Z,0
2016-11-09T03:14:45.039Z,0
2016-11-09T03:15:59.167Z,0
2016-11-09T03:17:43.503Z,0
2016-11-09T03:19:12.037Z,0
2016-11-09T03:20:25.951Z,0
2016-11-09T03:21:39.995Z,0
2016-11-09T03:23:09.499Z,0
2016-11-09T03:24:52.938Z,0
2016-11-09T03:27:06.201Z,0
2016-11-09T03:28:20.093Z,0
2016-11-09T03:29:33.906Z,0
2016-11-09T03:30:47.998Z,0
2016-11-09T03:32:01.808Z,0
2016-11-09T03:33:15.589Z,0
2016-11-09T03:34:30.000Z,0
2016-11-09T03:35:43.844Z,0
2016-11-09T03:36:58.219Z,0
2016-11-09T03:38:11.779Z,0
2016-11-09T03:39:25.482Z,0
2016-11-09T03:40:39.501Z,0
2016-11-09T03:41:53.171Z,0
2016-11-09T03:43:07.288Z,0
2016-11-09T03:44:21.117Z,0
2016-11-09T03:45:34.812Z,0
2016-11-09T03:46:48.909Z,0
2016-11-09T03:48:02.431Z,0
2016-11-09T03:50:15.324Z,0
2016-11-09T03:51:29.452Z,0
2016-11-09T03:52:43.345Z,0
2016-11-09T03:54:11.732Z,0
2016-11-09T03:55:55.000Z,0
2016-11-09T03:57:53.250Z,0
2016-11-09T03:59:07.852Z,0
2016-11-09T04:00:36.436Z,0
2016-11-09T04:03:33.656Z,0
2016-11-09T04:05:02.499Z,0
2016-11-09T04:06:16.392Z,0
2016-11-09T04:09:13.752Z,0
2016-11-09T04:10:42.200Z,0
2016-11-09T04:11:56.206Z,0
2016-11-09T04:13:10.004Z,0
2016-11-09T04:16:07.586Z,0
2016-11-09T04:17:35.936Z,0
2016-11-09T04:22:02.303Z,0
2016-11-09T04:25:14.215Z,0
2016-11-09T04:26:57.630Z,0
2016-11-09T04:28:26.789Z,0
2016-11-09T04:32:38.063Z,0
2016-11-09T04:33:53.973Z,0
2016-11-09T04:35:07.821Z,0
2016-11-09T04:36:21.488Z,0
2016-11-09T04:37:35.438Z,0
2016-11-09T04:38:48.964Z,0
2016-11-09T04:40:02.736Z,0
2016-11-09T04:41:16.834Z,0
2016-11-09T04:43:59.359Z,0
2016-11-09T04:45:13.769Z,0
2016-11-09T04:46:42.225Z,0
2016-11-09T04:47:56.103Z,0
2016-11-09T04:49:09.792Z,0
2016-11-09T04:50:23.863Z,0
2016-11-09T04:51:37.889Z,0
2016-11-09T04:52:51.801Z,0
2016-11-09T04:54:05.879Z,0
2016-11-09T04:55:19.494Z,0
2016-11-09T04:56:33.570Z,0
2016-11-09T04:57:47.022Z,0
2016-11-09T04:59:01.104Z,0
2016-11-09T05:00:14.961Z,0
2016-11-09T05:01:28.685Z,0
2016-11-09T05:02:42.786Z,0
2016-11-09T05:05:25.243Z,0
2016-11-09T05:06:39.073Z,0
2016-11-09T05:07:52.873Z,0
2016-11-09T05:09:06.884Z,0
2016-11-09T05:10:20.650Z,0
2016-11-09T05:11:49.101Z,0
2016-11-09T05:13:17.999Z,0
2016-11-09T05:14:32.173Z,0
2016-11-09T05:15:46.472Z,0
2016-11-09T05:18:14.201Z,0
2016-11-09T05:19:28.538Z,0
2016-11-09T05:20:42.686Z,0
2016-11-09T05:21:56.734Z,0
2016-11-09T05:23:10.244Z,0
2016-11-09T05:24:23.721Z,0
2016-11-09T05:25:52.963Z,0
2016-11-09T05:27:21.769Z,0
2016-11-09T05:28:50.896Z,0
2016-11-09T05:30:04.566Z,0
2016-11-09T05:31:18.677Z,0
2016-11-09T05:32:32.622Z,0
2016-11-09T05:33:46.189Z,0
2016-11-09T05:35:00.243Z,0
2016-11-09T05:36:14.203Z,0
2016-11-09T05:37:28.114Z,0
2016-11-09T05:38:42.028Z,0
2016-11-09T05:39:55.795Z,0
2016-11-09T05:41:09.608Z,0
2016-11-09T05:42:23.311Z,0
2016-11-09T05:43:37.219Z,0
2016-11-09T05:44:51.388Z,0
2016-11-09T05:46:05.069Z,0
2016-11-09T05:47:19.272Z,0
2016-11-09T05:48:33.112Z,0
2016-11-09T05:49:47.252Z,0
2016-11-09T05:51:01.163Z,0
2016-11-09T05:52:15.045Z,0
2016-11-09T05:53:31.369Z,0
2016-11-09T05:54:44.958Z,0
2016-11-09T05:55:59.045Z,0
2016-11-09T05:57:13.230Z,0
2016-11-09T05:58:27.150Z,0
2016-11-09T05:59:41.278Z,0
2016-11-09T06:00:55.077Z,0
2016-11-09T06:02:09.075Z,0
2016-11-09T06:03:23.212Z,0
2016-11-09T06:04:37.139Z,0
2016-11-09T06:08:33.780Z,0
2016-11-09T06:09:47.273Z,0
2016-11-09T06:12:59.457Z,0
2016-11-09T06:14:28.457Z,0
2016-11-09T06:15:42.208Z,0
2016-11-09T06:16:56.217Z,0
2016-11-09T06:18:24.773Z,0
2016-11-09T06:19:38.954Z,0
2016-11-09T06:22:51.287Z,0
2016-11-09T06:25:49.060Z,0
2016-11-09T06:29:16.343Z,0
2016-11-09T06:30:30.150Z,0
2016-11-09T06:31:58.817Z,0
2016-11-09T06:33:13.087Z,0
2016-11-09T06:34:41.688Z,0
2016-11-09T06:36:10.599Z,0
2016-11-09T06:37:24.691Z,0
2016-11-09T06:39:08.052Z,0
2016-11-09T06:40:22.191Z,0
2016-11-09T06:41:51.420Z,0
2016-11-09T06:46:17.677Z,0
2016-11-09T06:47:31.698Z,0
2016-11-09T06:48:45.834Z,0
2016-11-09T06:49:59.619Z,0
2016-11-09T06:51:13.518Z,0
2016-11-09T06:52:27.351Z,0
2016-11-09T06:53:41.285Z,5
2016-11-09T06:54:55.526Z,5
2016-11-09T06:56:09.161Z,5
2016-11-09T06:57:22.837Z,5
2016-11-09T06:58:51.379Z,0
2016-11-09T07:00:05.627Z,5
2016-11-09T07:01:19.982Z,5
2016-11-09T07:02:34.098Z,5
2016-11-09T07:03:47.795Z,5
2016-11-09T07:05:01.611Z,5
2016-11-09T07:06:15.856Z,5
2016-11-09T07:07:29.522Z,5
2016-11-09T07:08:43.627Z,5
2016-11-09T07:09:57.434Z,5
2016-11-09T07:11:11.053Z,5
2016-11-09T07:12:39.992Z,5
2016-11-09T07:13:54.029Z,5
2016-11-09T07:15:08.346Z,5
2016-11-09T07:16:22.222Z,5
2016-11-09T07:17:38.142Z,5
2016-11-09T07:18:52.181Z,5
2016-11-09T07:20:06.206Z,5
2016-11-09T07:21:19.902Z,5
2016-11-09T07:22:34.294Z,5
2016-11-09T07:23:48.246Z,5
2016-11-09T07:25:02.113Z,5
2016-11-09T07:26:15.854Z,10
2016-11-09T07:27:30.027Z,10
2016-11-09T07:28:43.771Z,10
2016-11-09T07:29:57.664Z,10
2016-11-09T07:31:11.742Z,10
2016-11-09T07:32:25.434Z,10
2016-11-09T07:33:39.400Z,10
2016-11-09T07:34:53.237Z,5
2016-11-09T07:36:07.040Z,5
2016-11-09T07:37:21.165Z,5
2016-11-09T07:38:35.339Z,5
2016-11-09T07:39:49.605Z,10
2016-11-09T07:41:03.383Z,10
2016-11-09T07:42:17.798Z,10
2016-11-09T07:43:31.623Z,10
2016-11-09T07:44:45.330Z,10
2016-11-09T07:45:59.518Z,10
2016-11-09T07:47:13.475Z,10
2016-11-09T07:48:27.696Z,10
2016-11-09T07:49:42.111Z,10
2016-11-09T07:50:55.722Z,10
2016-11-09T07:52:09.586Z,15
2016-11-09T07:53:23.879Z,15
2016-11-09T07:54:37.940Z,15
2016-11-09T07:55:53.002Z,15
2016-11-09T07:57:07.583Z,15
2016-11-09T07:58:21.528Z,15
2016-11-09T07:59:35.211Z,15
2016-11-09T08:01:03.706Z,10
2016-11-09T08:02:17.826Z,10
2016-11-09T08:03:31.719Z,15
2016-11-09T08:04:45.587Z,15
2016-11-09T08:05:59.304Z,15
2016-11-09T08:07:13.044Z,15
2016-11-09T08:08:27.447Z,15
2016-11-09T08:09:41.292Z,20
2016-11-09T08:10:55.030Z,20
2016-11-09T08:12:08.907Z,25
2016-11-09T08:13:22.879Z,25
2016-11-09T08:14:36.689Z,30
2016-11-09T08:15:50.367Z,30
2016-11-09T08:17:04.332Z,30
2016-11-09T08:18:18.193Z,30
2016-11-09T08:19:31.773Z,30
2016-11-09T08:20:45.636Z,35
2016-11-09T08:21:59.340Z,35
2016-11-09T08:23:13.344Z,35
2016-11-09T08:24:26.885Z,35
2016-11-09T08:25:40.746Z,40
2016-11-09T08:26:54.617Z,45
2016-11-09T08:28:08.866Z,50
2016-11-09T08:29:22.886Z,50
2016-11-09T08:30:36.912Z,55
2016-11-09T08:31:50.477Z,60
2016-11-09T08:33:04.483Z,60
2016-11-09T08:34:20.291Z,60
2016-11-09T08:35:34.096Z,65
2016-11-09T08:36:48.042Z,65
2016-11-09T08:38:01.973Z,65
2016-11-09T08:39:16.013Z,65
2016-11-09T08:40:29.476Z,65
2016-11-09T08:41:43.043Z,65
2016-11-09T08:42:56.774Z,70
2016-11-09T08:44:11.215Z,70
2016-11-09T08:45:25.305Z,75
2016-11-09T08:46:39.164Z,70
2016-11-09T08:47:53.076Z,70
2016-11-09T08:49:06.940Z,70
2016-11-09T08:50:20.579Z,75
2016-11-09T08:51:34.612Z,80
2016-11-09T08:52:48.437Z,80
2016-11-09T08:54:02.203Z,75
2016-11-09T08:55:16.432Z,75
2016-11-09T08:56:30.317Z,75
2016-11-09T08:57:45.479Z,75
2016-11-09T08:59:00.295Z,75
2016-11-09T09:01:43.140Z,75
2016-11-09T09:03:12.443Z,75
2016-11-09T09:04:41.296Z,80
2016-11-09T09:08:37.912Z,85
2016-11-09T09:10:36.128Z,85
2016-11-09T09:11:50.684Z,80
2016-11-09T09:15:03.233Z,70
2016-11-09T09:18:59.859Z,65
2016-11-09T09:20:43.515Z,60
2016-11-09T09:21:57.720Z,70
2016-11-09T09:25:09.678Z,65
2016-11-09T09:28:07.406Z,70
2016-11-09T09:29:21.651Z,70
2016-11-09T09:30:50.398Z,75
2016-11-09T09:32:18.994Z,70
2016-11-09T09:34:17.143Z,70
2016-11-09T09:35:31.689Z,65
2016-11-09T09:37:44.780Z,60
2016-11-09T09:38:58.443Z,55
2016-11-09T09:40:12.258Z,55
2016-11-09T09:41:41.465Z,50
2016-11-09T09:42:55.171Z,55
2016-11-09T09:44:08.982Z,55
2016-11-09T09:46:51.543Z,60
2016-11-09T09:48:05.675Z,65
2016-11-09T09:49:19.522Z,70
2016-11-09T09:51:02.910Z,75
2016-11-09T09:54:16.115Z,95
2016-11-09T09:55:30.697Z,100
2016-11-09T10:04:41.132Z,95
2016-11-09T10:06:09.936Z,90
2016-11-09T10:07:39.037Z,90
2016-11-09T10:11:06.323Z,90
2016-11-09T10:16:47.566Z,95
2016-11-09T10:18:31.131Z,95
2016-11-09T10:20:44.022Z,100
2016-11-09T10:23:56.271Z,95
2016-11-09T10:25:25.145Z,95
2016-11-09T10:27:08.861Z,85
2016-11-09T10:28:22.930Z,90
2016-11-09T10:33:47.931Z,90
2016-11-09T10:35:02.380Z,90
2016-11-09T10:37:15.640Z,85
2016-11-09T10:39:13.835Z,85
2016-11-09T10:40:28.585Z,85
2016-11-09T10:41:42.420Z,85
2016-11-09T10:44:54.885Z,85
2016-11-09T10:47:22.607Z,90
2016-11-09T10:48:51.760Z,80
2016-11-09T10:50:20.660Z,85
2016-11-09T10:51:34.274Z,90
2016-11-09T10:52:47.908Z,90
2016-11-09T10:58:57.907Z,85
2016-11-09T11:00:12.142Z,85
2016-11-09T11:01:25.997Z,85
2016-11-09T11:02:55.922Z,95
2016-11-09T11:04:09.667Z,105
2016-11-09T11:05:24.121Z,110
2016-11-09T11:06:37.795Z,120
2016-11-09T11:07:52.070Z,120
2016-11-09T11:09:20.940Z,115
2016-11-09T11:10:49.675Z,110
2016-11-09T11:12:18.377Z,115
2016-11-09T11:14:02.076Z,110
2016-11-09T11:15:30.913Z,110
2016-11-09T11:18:13.466Z,105
2016-11-09T11:19:27.369Z,110
2016-11-09T11:21:10.805Z,125
2016-11-09T11:22:25.272Z,135
2016-11-09T11:23:38.863Z,135
2016-11-09T11:24:52.684Z,135
2016-11-09T11:26:06.353Z,135
2016-11-09T11:27:20.087Z,130
2016-11-09T11:28:34.429Z,125
2016-11-09T11:29:48.781Z,120
2016-11-09T11:31:31.980Z,125
2016-11-09T11:33:30.511Z,125
2016-11-09T11:42:52.410Z,130
2016-11-09T11:44:51.138Z,130
2016-11-09T11:48:50.282Z,125
2016-11-09T11:50:04.139Z,120
2016-11-09T11:51:32.778Z,130
2016-11-09T11:52:46.657Z,125
2016-11-09T11:54:01.092Z,125
2016-11-09T11:55:14.936Z,120
2016-11-09T11:59:41.432Z,120
2016-11-09T12:01:24.835Z,120
2016-11-09T12:05:37.566Z,115
2016-11-09T12:09:48.665Z,105
2016-11-09T12:12:02.274Z,105
2016-11-09T12:13:16.434Z,105
2016-11-09T12:14:59.714Z,105
2016-11-09T12:21:53.912Z,110
2016-11-09T12:23:22.632Z,115
2016-11-09T12:27:19.629Z,120
2016-11-09T12:28:48.093Z,125
2016-11-09T12:34:43.230Z,130
2016-11-09T12:35:57.080Z,130
2016-11-09T12:39:09.689Z,125
2016-11-09T12:40:53.558Z,125
2016-11-09T12:42:36.870Z,125
2016-11-09T12:46:48.831Z,125
2016-11-09T12:49:31.108Z,120
2016-11-09T12:53:28.154Z,115
2016-11-09T12:55:41.205Z,110
2016-11-09T12:57:39.509Z,105
2016-11-09T12:59:23.570Z,105
2016-11-09T13:04:35.204Z,105
2016-11-09T13:08:02.826Z,95
2016-11-09T13:10:01.109Z,95
2016-11-09T13:14:57.119Z,95
2016-11-09T13:16:40.576Z,95
2016-11-09T13:18:23.901Z,95
2016-11-09T13:20:21.919Z,95
2016-11-09T13:21:35.930Z,95
2016-11-09T13:22:49.613Z,95
2016-11-09T13:24:03.313Z,95
2016-11-09T13:25:46.780Z,95
2016-11-09T13:28:59.434Z,95
2016-11-09T13:32:11.742Z,85
2016-11-09T13:33:40.337Z,80
2016-11-09T13:36:41.115Z,75
2016-11-09T13:38:10.309Z,70
2016-11-09T13:39:38.791Z,65
2016-11-09T13:40:53.118Z,65
2016-11-09T13:42:22.246Z,60
2016-11-09T13:44:05.850Z,55
2016-11-09T13:45:34.683Z,55
2016-11-09T13:50:30.898Z,45
2016-11-09T13:51:59.516Z,40
2016-11-09T13:53:28.198Z,40
2016-11-09T13:54:56.863Z,40
2016-11-09T13:56:40.729Z,40
2016-11-09T13:58:09.089Z,40
2016-11-09T14:01:51.000Z,40
2016-11-09T14:03:19.807Z,40
2016-11-09T14:05:03.148Z,40
2016-11-09T14:07:15.983Z,40
2016-11-09T14:15:25.006Z,40
2016-11-09T14:16:38.735Z,40
2016-11-09T14:17:52.419Z,40
2016-11-09T14:20:35.362Z,35
2016-11-09T14:21:49.957Z,35
2016-11-09T14:24:47.232Z,35
2016-11-09T14:26:15.677Z,35
2016-11-09T14:27:29.915Z,35
2016-11-09T14:28:43.663Z,35
2016-11-09T14:30:12.110Z,30
2016-11-09T14:31:26.003Z,30
2016-11-09T14:32:54.929Z,30
2016-11-09T14:34:23.803Z,30
2016-11-09T14:36:07.434Z,30
2016-11-09T14:37:21.487Z,25
2016-11-09T14:38:35.739Z,25
2016-11-09T14:39:49.819Z,25
2016-11-09T14:41:03.338Z,25
2016-11-09T14:42:17.075Z,25
2016-11-09T14:46:13.793Z,20
2016-11-09T14:47:27.778Z,20
2016-11-09T14:48:42.040Z,15
2016-11-09T14:50:10.603Z,15
2016-11-09T14:55:51.129Z,15
2016-11-09T14:57:34.406Z,10
2016-11-09T14:59:18.039Z,10
2016-11-09T15:03:00.764Z,10
2016-11-09T15:04:29.535Z,10
2016-11-09T15:06:13.034Z,10
2016-11-09T15:07:26.907Z,10
2016-11-09T15:08:40.482Z,10
2016-11-09T15:09:53.985Z,10
2016-11-09T15:11:08.179Z,10
2016-11-09T15:12:24.357Z,10
2016-11-09T15:16:06.065Z,5
2016-11-09T15:17:20.379Z,5
2016-11-09T15:21:31.824Z,5
2016-11-09T15:22:46.021Z,5
2016-11-09T15:23:59.863Z,5
2016-11-09T15:27:56.288Z,5
2016-11-09T15:29:25.227Z,5
2016-11-09T15:30:54.128Z,5
2016-11-09T15:34:50.827Z,0
2016-11-09T15:36:13.560Z,0
2016-11-09T15:37:27.414Z,0
2016-11-09T15:39:25.623Z,0
2016-11-09T15:40:39.456Z,0
2016-11-09T15:42:45.727Z,0
2016-11-09T15:44:17.078Z,0
2016-11-09T15:46:21.376Z,0
2016-11-09T15:47:51.099Z,0
2016-11-09T15:49:20.513Z,0
2016-11-09T15:55:31.922Z,0
2016-11-09T15:57:00.772Z,0
2016-11-09T15:58:30.136Z,0
2016-11-09T16:00:42.980Z,0
2016-11-09T16:01:57.420Z,0
2016-11-09T16:06:23.422Z,0
2016-11-09T16:08:07.309Z,0
2016-11-09T16:09:21.214Z,0
2016-11-09T16:10:35.484Z,0
2016-11-09T16:12:04.238Z,0
2016-11-09T16:13:48.092Z,0
2016-11-09T16:15:02.032Z,0
2016-11-09T16:16:45.586Z,0
2016-11-09T16:18:14.086Z,0
2016-11-09T16:23:09.848Z,0
2016-11-09T16:34:15.342Z,0
2016-11-09T16:35:44.047Z,0
2016-11-09T16:36:57.833Z,0
2016-11-09T16:38:26.642Z,0
2016-11-09T16:39:40.405Z,0
2016-11-09T16:40:54.240Z,0
2016-11-09T16:42:08.683Z,0
2016-11-09T16:45:50.358Z,0
2016-11-09T16:47:04.188Z,0
2016-11-09T16:53:28.627Z,0
2016-11-09T16:54:42.366Z,0
2016-11-09T16:56:25.917Z,0
2016-11-09T16:57:54.868Z,0
2016-11-09T17:02:23.537Z,0
2016-11-09T17:08:03.894Z,0
2016-11-09T17:09:18.006Z,0
2016-11-09T17:11:16.152Z,0
2016-11-09T17:12:29.977Z,0
2016-11-09T17:13:44.178Z,0
2016-11-09T17:15:13.144Z,0
2016-11-09T17:16:41.974Z,0
2016-11-09T17:18:54.947Z,0
2016-11-09T17:21:08.089Z,0
2016-11-09T17:22:36.946Z,0
2016-11-09T17:28:17.489Z,0
2016-11-09T17:31:51.667Z,0
2016-11-09T17:33:05.347Z,0
2016-11-09T17:38:31.225Z,0
2016-11-09T17:39:44.995Z,0
2016-11-09T17:40:58.873Z,0
2016-11-09T17:44:55.734Z,0
2016-11-09T17:46:39.698Z,0
2016-11-09T17:48:08.171Z,0
2016-11-09T17:51:35.463Z,0
2016-11-09T17:52:49.556Z,0
2016-11-09T17:56:16.384Z,0
2016-11-09T17:58:14.555Z,0
2016-11-09T18:09:06.512Z,0
2016-11-09T18:10:49.999Z,0
2016-11-09T18:12:33.470Z,0
2016-11-09T18:15:01.212Z,0
2016-11-09T18:24:09.666Z,0
2016-11-09T18:25:23.298Z,0
2016-11-09T18:27:21.296Z,0
2016-11-09T18:29:04.807Z,0
2016-11-09T18:30:18.986Z,0
2016-11-09T18:31:47.910Z,0
2016-11-09T18:43:09.423Z,0
2016-11-09T18:44:23.317Z,0
2016-11-09T18:55:31.451Z,0
2016-11-09T19:02:11.239Z,0
2016-11-09T19:05:52.996Z,0
2016-11-09T19:07:21.704Z,0
2016-11-09T19:13:02.523Z,0
2016-11-09T19:15:30.310Z,0
2016-11-09T19:17:29.021Z,0
2016-11-09T19:20:26.591Z,0
2016-11-09T19:21:55.151Z,0
2016-11-09T19:23:09.266Z,0
2016-11-09T19:24:23.459Z,0
2016-11-09T19:25:37.971Z,0
2016-11-09T19:27:06.490Z,0
2016-11-09T19:30:34.152Z,0
2016-11-09T19:32:17.869Z,0
2016-11-09T19:37:43.411Z,0
2016-11-09T19:38:57.470Z,0
2016-11-09T19:40:26.009Z,0
2016-11-09T19:41:39.893Z,0
2016-11-09T19:43:52.884Z,0
2016-11-09T19:45:51.392Z,0
2016-11-09T19:47:35.076Z,0
2016-11-09T19:56:28.084Z,0
2016-11-09T19:57:41.971Z,0
2016-11-09T19:59:11.302Z,0
2016-11-09T20:01:09.907Z,0
2016-11-09T20:02:38.352Z,0
2016-11-09T20:03:52.676Z,0
2016-11-09T20:05:06.904Z,0
2016-11-09T20:06:21.339Z,0
2016-11-09T20:10:18.320Z,0
2016-11-09T20:11:33.311Z,0
2016-11-09T20:13:31.639Z,0
2016-11-09T20:15:15.589Z,0
2016-11-09T20:16:30.415Z,0
2016-11-09T20:22:10.851Z,0
2016-11-09T20:24:54.219Z,0
2016-11-09T20:26:23.168Z,0
2016-11-09T20:27:37.042Z,0
2016-11-09T20:28:51.051Z,0
2016-11-09T20:30:04.779Z,0
2016-11-09T20:31:18.928Z,0
2016-11-09T20:34:46.164Z,0
2016-11-09T20:36:44.278Z,0
2016-11-09T20:37:58.512Z,0
2016-11-09T20:39:14.943Z,0
2016-11-09T20:40:29.552Z,0
2016-11-09T20:41:43.815Z,0
2016-11-09T20:45:10.611Z,0
2016-11-09T20:48:38.003Z,0
2016-11-09T20:50:50.825Z,0
2016-11-09T20:54:47.456Z,0
2016-11-09T20:56:16.613Z,0
2016-11-09T20:57:30.843Z,0
2016-11-09T20:59:14.310Z,0
2016-11-09T21:04:40.769Z,0
2016-11-09T21:11:49.809Z,0
2016-11-09T21:13:48.020Z,0
2016-11-09T21:15:31.741Z,0
2016-11-09T21:17:00.984Z,0
2016-11-09T21:20:57.639Z,0
2016-11-09T21:22:41.423Z,0
2016-11-09T21:23:56.479Z,0
2016-11-09T21:26:09.483Z,0
2016-11-09T21:27:53.550Z,0
2016-11-09T21:29:22.663Z,0
2016-11-09T21:33:04.908Z,0
2016-11-09T21:34:18.892Z,0
2016-11-09T21:35:32.748Z,0
2016-11-09T21:37:45.737Z,0
2016-11-09T21:44:40.090Z,0
2016-11-09T21:48:37.181Z,0
2016-11-09T21:49:51.671Z,0
2016-11-09T21:53:18.509Z,0
2016-11-09T21:54:32.663Z,0
2016-11-09T21:56:01.998Z,0
2016-11-09T21:57:45.500Z,0
2016-11-09T21:59:13.908Z,0
2016-11-09T22:00:57.468Z,0
2016-11-09T22:02:12.136Z,0
2016-11-09T22:03:26.510Z,0
2016-11-09T22:05:24.904Z,0
2016-11-09T22:07:08.586Z,0
2016-11-09T22:08:24.043Z,0
2016-11-09T22:09:52.704Z,0
2016-11-09T22:11:21.472Z,0
2016-11-09T22:12:35.373Z,0
2016-11-09T22:14:04.618Z,0
2016-11-09T22:15:33.251Z,0
2016-11-09T22:16:47.189Z,0
2016-11-09T22:21:42.533Z,0
2016-11-09T22:23:27.477Z,0
2016-11-09T22:24:56.088Z,0
2016-11-09T22:26:12.221Z,0
2016-11-09T22:27:26.132Z,0
2016-11-09T22:28:40.689Z,0
2016-11-09T22:30:09.568Z,0
2016-11-09T22:31:23.443Z,0
2016-11-09T22:33:21.629Z,0
2016-11-09T22:34:50.424Z,0
2016-11-09T22:36:19.268Z,0
2016-11-09T22:43:13.219Z,0
2016-11-09T22:44:27.495Z,0
2016-11-09T22:46:11.086Z,0
2016-11-09T22:47:26.080Z,0
2016-11-09T22:48:40.901Z,0
2016-11-09T22:49:55.754Z,0
2016-11-09T22:51:09.675Z,0
2016-11-09T22:53:22.864Z,0
2016-11-09T22:54:52.724Z,0
2016-11-09T22:56:36.089Z,0
2016-11-09T22:57:49.917Z,0
2016-11-09T23:02:01.701Z,0
2016-11-09T23:03:30.369Z,0
2016-11-09T23:04:44.267Z,0
2016-11-09T23:05:58.238Z,0
2016-11-09T23:07:27.241Z,0
2016-11-09T23:10:25.867Z,0
2016-11-09T23:12:24.262Z,0
2016-11-09T23:15:51.738Z,0
2016-11-09T23:17:20.579Z,0
2016-11-09T23:18:34.472Z,0
2016-11-09T23:20:03.177Z,0
2016-11-09T23:21:47.107Z,0
2016-11-09T23:23:01.410Z,0
2016-11-09T23:24:16.046Z,0
2016-11-09T23:25:44.869Z,0
2016-11-09T23:27:14.060Z,0
2016-11-09T23:28:28.240Z,0
2016-11-09T23:29:57.007Z,0
2016-11-09T23:31:11.042Z,0
2016-11-09T23:32:25.323Z,0
2016-11-09T23:36:07.349Z,0
2016-11-09T23:37:36.010Z,0
2016-11-09T23:38:50.231Z,0
2016-11-09T23:40:04.680Z,0
2016-11-09T23:41:33.584Z,0
2016-11-09T23:45:16.514Z,0
2016-11-09T23:47:44.200Z,0
2016-11-09T23:49:28.004Z,0
2016-11-09T23:50:42.533Z,0
2016-11-09T23:53:55.209Z,0
2016-11-09T23:57:37.835Z,0
2016-11-09T23:59:06.563Z,0
